Flight Track Log - Related Links

Times and Time Zones

All times are in EDT time to prevent confusion due to time zone crossing. See the N469S flight status page for this flight to view local times or setup timezone preferences in your user account.

Time Position Orientation Groundspeed Altitude Reporting Facility
EDT Latitude Longitude Course Direction KTS MPH feet Rate Location/Type
Tue 02:47:38 PM 40.9747 -83.0392 244° Southwest 174 200 10,500  Level Cleveland Center
Tue 02:48:38 PM 40.9525 -83.0933 242° Southwest 174 200 10,500  Level Cleveland Center
Tue 02:49:38 PM 40.9325 -83.1503 245° Southwest 174 200 10,500  Level Cleveland Center
Tue 02:50:38 PM 40.9103 -83.2097 244° Southwest 174 200 10,500  Level Cleveland Center
Tue 02:51:38 PM 40.8903 -83.2639 244° Southwest 169 194 10,500  Level Cleveland Center
Tue 02:53:00 PM 40.9091 -83.2077 244° Southwest  Level Estimated
Tue 02:53:35 PM 40.8506 -83.3681 243° Southwest 166 191 10,500  Level Indianapolis Center
Tue 02:54:37 PM 40.8303 -83.4222 244° Southwest 163 188 10,500  Level Indianapolis Center
Tue 02:55:39 PM 40.8089 -83.4764 242° Southwest 164 189 10,500  Level Indianapolis Center
Tue 02:56:41 PM 40.7867 -83.5364 244° Southwest 165 190 10,500  Level Indianapolis Center
Tue 02:57:42 PM 40.7653 -83.5903 242° Southwest 164 189 10,500  Level Indianapolis Center
Tue 02:58:44 PM 40.7447 -83.6461 244° Southwest 167 192 10,500  Level Indianapolis Center
Tue 02:59:46 PM 40.7231 -83.7011 243° Southwest 168 193 10,500  Level Indianapolis Center
Tue 03:00:48 PM 40.7014 -83.7561 243° Southwest 168 193 10,500  Level Indianapolis Center
Tue 03:01:50 PM 40.6811 -83.8117 244° Southwest 167 192 10,500  Level Indianapolis Center
Tue 03:02:52 PM 40.6600 -83.8669 243° Southwest 167 192 10,500  Level Indianapolis Center
Tue 03:03:54 PM 40.6372 -83.9225 242° Southwest 170 196 10,500  Level Indianapolis Center
Tue 03:04:56 PM 40.6136 -83.9872 244° Southwest 168 193 10,500  Level Indianapolis Center
Tue 03:05:57 PM 40.5911 -84.0422 242° Southwest 168 193 10,500  Level Indianapolis Center
Tue 03:06:59 PM 40.5694 -84.0986 243° Southwest 171 197 10,500  Level Indianapolis Center
Tue 03:08:01 PM 40.5483 -84.1531 243° Southwest 168 193 10,500  Level Indianapolis Center
Tue 03:09:03 PM 40.5272 -84.2092 244° Southwest 169 194 10,500  Level Indianapolis Center
Tue 03:10:05 PM 40.5047 -84.2642 242° Southwest 169 194 10,500  Level Indianapolis Center
Tue 03:11:07 PM 40.4828 -84.3178 242° Southwest 167 192 10,500  Level Indianapolis Center
Tue 03:12:09 PM 40.4614 -84.3736 243° Southwest 169 194 10,500  Level Indianapolis Center
Tue 03:13:10 PM 40.4364 -84.4378 243° Southwest 169 194 10,500  Level Indianapolis Center
Tue 03:14:12 PM 40.4147 -84.4936 243° Southwest 169 194 10,500  Level Indianapolis Center
Tue 03:15:14 PM 40.3919 -84.5492 242° Southwest 170 196 10,500  Level Indianapolis Center
Tue 03:16:16 PM 40.3706 -84.6039 243° Southwest 170 196 10,500 -48 Level Indianapolis Center
Tue 03:17:18 PM 40.3483 -84.6572 241° Southwest 167 192 10,400 -242 Descending Indianapolis Center
Tue 03:18:20 PM 40.3264 -84.7142 243° Southwest 169 194 10,000 -194 Descending Indianapolis Center
Tue 03:19:22 PM 40.3047 -84.7689 243° Southwest 170 196 10,000  Level Indianapolis Center
Tue 03:20:24 PM 40.2803 -84.8294 242° Southwest 165 190 10,000  Level Indianapolis Center
Tue 03:21:26 PM 40.2586 -84.8847 243° Southwest 166 191 10,000  Level Indianapolis Center
Tue 03:22:28 PM 40.2375 -84.9394 243° Southwest 167 192 10,000  Level Indianapolis Center
Tue 03:23:30 PM 40.2158 -84.9922 242° Southwest 166 191 10,000  Level Indianapolis Center
Tue 03:24:32 PM 40.1939 -85.0461 242° Southwest 165 190 10,000  Level Indianapolis Center
Tue 03:25:34 PM 40.1731 -85.0994 243° Southwest 165 190 10,000  Level Indianapolis Center
Tue 03:27:00 PM 40.1387 -85.1560 237° Southwest  Level FlightAware Approximate
Tue 03:34:00 PM 40.0168 -85.4595 244° Southwest  Level FlightAware Approximate
Tue 03:35:00 PM 40.0005 -85.5036 244° Southwest  Level FlightAware Approximate
Tue 03:36:00 PM 39.9842 -85.5478 244° Southwest  Level FlightAware Approximate
Tue 03:37:00 PM 39.9585 -85.5723 244° Southwest  Level FlightAware Approximate
Tue 03:38:00 PM 39.9423 -85.6165 244° Southwest  Level FlightAware Approximate
Tue 03:39:00 PM 39.9260 -85.6607 244° Southwest  Level FlightAware Approximate
Tue 03:40:00 PM 39.9098 -85.7048 244° Southwest  Level FlightAware Approximate
Tue 03:41:00 PM 39.8935 -85.7489 244° Southwest  Level FlightAware Approximate
Tue 03:42:00 PM 39.8773 -85.7930 244° Southwest  Level FlightAware Approximate
Tue 03:43:00 PM 39.8610 -85.8370 244° Southwest  Level FlightAware Approximate
Tue 03:44:00 PM 39.8403 -85.8764 218° Southwest  Level FlightAware Approximate
Tue 03:45:00 PM 39.8333 -85.8833 218° Southwest  Level FlightAware Approximate
Tue 03:46:00 PM 39.8435 -85.8971 218° Southwest  Level Estimated
Tue 03:47:00 PM 39.8435 -85.8971 218° Southwest  Level Estimated
Tue 03:48:00 PM 39.8435 -85.8971 218° Southwest  Level Estimated
Tue 03:49:00 PM 39.8435 -85.8971 218° Southwest  Level Estimated
Tue 03:50:00 PM 39.8435 -85.8971 218° Southwest  Level Estimated
Tue 03:51:00 PM 39.8435 -85.8971 218° Southwest  Level Estimated

Login

Don't have an account? Register now (free) for customized features, flight alerts, and more!